sensor_id;sensor_type;location;lat;lon;timestamp;temperature;humidity
46608;DHT22;32330;51.936;7.184;2023-05-07T00:00:35;14.90;99.90
46608;DHT22;32330;51.936;7.184;2023-05-07T00:03:02;14.90;99.90
46608;DHT22;32330;51.936;7.184;2023-05-07T00:05:29;14.90;99.90
46608;DHT22;32330;51.936;7.184;2023-05-07T00:07:56;14.90;99.90
46608;DHT22;32330;51.936;7.184;2023-05-07T00:10:23;14.80;99.90
46608;DHT22;32330;51.936;7.184;2023-05-07T00:12:50;14.80;99.90
46608;DHT22;32330;51.936;7.184;2023-05-07T00:15:17;14.80;99.90
46608;DHT22;32330;51.936;7.184;2023-05-07T00:17:45;14.80;99.90
46608;DHT22;32330;51.936;7.184;2023-05-07T00:20:12;14.80;99.90
46608;DHT22;32330;51.936;7.184;2023-05-07T00:22:39;14.80;99.90
46608;DHT22;32330;51.936;7.184;2023-05-07T00:25:06;14.80;99.90
46608;DHT22;32330;51.936;7.184;2023-05-07T00:27:33;14.80;99.90
46608;DHT22;32330;51.936;7.184;2023-05-07T00:29:59;14.80;99.90
46608;DHT22;32330;51.936;7.184;2023-05-07T00:32:26;14.80;99.90
46608;DHT22;32330;51.936;7.184;2023-05-07T00:34:54;14.80;99.90
46608;DHT22;32330;51.936;7.184;2023-05-07T00:37:21;14.80;99.90
46608;DHT22;32330;51.936;7.184;2023-05-07T00:39:48;14.80;99.90
46608;DHT22;32330;51.936;7.184;2023-05-07T00:42:15;14.80;99.90
46608;DHT22;32330;51.936;7.184;2023-05-07T00:44:42;14.80;99.90
46608;DHT22;32330;51.936;7.184;2023-05-07T00:47:09;14.80;99.90
46608;DHT22;32330;51.936;7.184;2023-05-07T00:49:37;14.80;99.90
46608;DHT22;32330;51.936;7.184;2023-05-07T00:52:07;14.80;99.90
46608;DHT22;32330;51.936;7.184;2023-05-07T00:54:34;14.70;99.90
46608;DHT22;32330;51.936;7.184;2023-05-07T00:57:02;14.70;99.90
46608;DHT22;32330;51.936;7.184;2023-05-07T00:59:29;14.80;99.90
46608;DHT22;32330;51.936;7.184;2023-05-07T01:01:56;14.70;99.90
46608;DHT22;32330;51.936;7.184;2023-05-07T01:04:23;14.70;99.90
46608;DHT22;32330;51.936;7.184;2023-05-07T01:06:50;14.70;99.90
46608;DHT22;32330;51.936;7.184;2023-05-07T01:09:18;14.60;99.90
46608;DHT22;32330;51.936;7.184;2023-05-07T01:11:46;14.60;99.90
46608;DHT22;32330;51.936;7.184;2023-05-07T01:14:13;14.60;99.90
46608;DHT22;32330;51.936;7.184;2023-05-07T01:16:40;14.70;99.90
46608;DHT22;32330;51.936;7.184;2023-05-07T01:19:08;14.60;99.90
46608;DHT22;32330;51.936;7.184;2023-05-07T01:21:36;14.60;99.90
46608;DHT22;32330;51.936;7.184;2023-05-07T01:24:06;14.70;99.90
46608;DHT22;32330;51.936;7.184;2023-05-07T01:26:33;14.70;99.90
46608;DHT22;32330;51.936;7.184;2023-05-07T01:29:00;14.60;99.90
46608;DHT22;32330;51.936;7.184;2023-05-07T01:31:27;14.60;99.90
46608;DHT22;32330;51.936;7.184;2023-05-07T01:33:54;14.60;99.90
46608;DHT22;32330;51.936;7.184;2023-05-07T01:36:21;14.50;99.90
46608;DHT22;32330;51.936;7.184;2023-05-07T01:38:51;14.50;99.90
46608;DHT22;32330;51.936;7.184;2023-05-07T01:41:20;14.50;99.90
46608;DHT22;32330;51.936;7.184;2023-05-07T01:43:48;14.50;99.90
46608;DHT22;32330;51.936;7.184;2023-05-07T01:46:15;14.50;99.90
46608;DHT22;32330;51.936;7.184;2023-05-07T01:48:42;14.50;99.90
46608;DHT22;32330;51.936;7.184;2023-05-07T01:51:11;14.50;99.90
46608;DHT22;32330;51.936;7.184;2023-05-07T01:53:38;14.50;99.90
46608;DHT22;32330;51.936;7.184;2023-05-07T01:56:06;14.50;99.90
46608;DHT22;32330;51.936;7.184;2023-05-07T01:58:37;14.50;99.90
46608;DHT22;32330;51.936;7.184;2023-05-07T02:01:03;14.40;99.90
46608;DHT22;32330;51.936;7.184;2023-05-07T02:03:30;14.50;99.90
46608;DHT22;32330;51.936;7.184;2023-05-07T02:06:05;14.50;99.90
46608;DHT22;32330;51.936;7.184;2023-05-07T02:08:37;14.50;99.90
46608;DHT22;32330;51.936;7.184;2023-05-07T02:11:04;14.50;99.90
46608;DHT22;32330;51.936;7.184;2023-05-07T02:13:32;14.50;99.90
46608;DHT22;32330;51.936;7.184;2023-05-07T02:16:01;14.50;99.90
46608;DHT22;32330;51.936;7.184;2023-05-07T02:18:28;14.50;99.90
46608;DHT22;32330;51.936;7.184;2023-05-07T02:20:55;14.50;99.90
46608;DHT22;32330;51.936;7.184;2023-05-07T02:23:22;14.50;99.90
46608;DHT22;32330;51.936;7.184;2023-05-07T02:25:48;14.50;99.90
46608;DHT22;32330;51.936;7.184;2023-05-07T02:28:15;14.50;99.90
46608;DHT22;32330;51.936;7.184;2023-05-07T02:30:48;14.50;99.90
46608;DHT22;32330;51.936;7.184;2023-05-07T02:33:18;14.50;99.90
46608;DHT22;32330;51.936;7.184;2023-05-07T02:35:45;14.50;99.90
46608;DHT22;32330;51.936;7.184;2023-05-07T02:38:14;14.50;99.90
46608;DHT22;32330;51.936;7.184;2023-05-07T02:40:41;14.50;99.90
46608;DHT22;32330;51.936;7.184;2023-05-07T02:43:07;14.50;99.90
46608;DHT22;32330;51.936;7.184;2023-05-07T02:45:35;14.50;99.90
46608;DHT22;32330;51.936;7.184;2023-05-07T02:48:04;14.40;99.90
46608;DHT22;32330;51.936;7.184;2023-05-07T02:50:32;14.40;99.90
46608;DHT22;32330;51.936;7.184;2023-05-07T02:52:59;14.30;99.90
46608;DHT22;32330;51.936;7.184;2023-05-07T02:55:26;14.40;99.90
46608;DHT22;32330;51.936;7.184;2023-05-07T02:57:53;14.30;99.90
46608;DHT22;32330;51.936;7.184;2023-05-07T03:00:20;14.30;99.90
46608;DHT22;32330;51.936;7.184;2023-05-07T03:03:00;14.30;99.90
46608;DHT22;32330;51.936;7.184;2023-05-07T03:05:28;14.30;99.90
46608;DHT22;32330;51.936;7.184;2023-05-07T03:07:56;14.30;99.90
46608;DHT22;32330;51.936;7.184;2023-05-07T03:10:23;14.30;99.90
46608;DHT22;32330;51.936;7.184;2023-05-07T03:12:50;14.20;99.90
46608;DHT22;32330;51.936;7.184;2023-05-07T03:15:17;14.20;99.90
46608;DHT22;32330;51.936;7.184;2023-05-07T03:17:44;14.20;99.90
46608;DHT22;32330;51.936;7.184;2023-05-07T03:20:11;14.20;99.90
46608;DHT22;32330;51.936;7.184;2023-05-07T03:22:39;14.20;99.90
46608;DHT22;32330;51.936;7.184;2023-05-07T03:25:08;14.20;99.90
46608;DHT22;32330;51.936;7.184;2023-05-07T03:27:35;14.10;99.90
46608;DHT22;32330;51.936;7.184;2023-05-07T03:30:02;14.10;99.90
46608;DHT22;32330;51.936;7.184;2023-05-07T03:32:30;14.10;99.90
46608;DHT22;32330;51.936;7.184;2023-05-07T03:34:57;14.00;99.90
46608;DHT22;32330;51.936;7.184;2023-05-07T03:37:24;14.00;99.90
46608;DHT22;32330;51.936;7.184;2023-05-07T03:39:51;14.00;99.90
46608;DHT22;32330;51.936;7.184;2023-05-07T03:42:19;14.00;99.90
46608;DHT22;32330;51.936;7.184;2023-05-07T03:44:49;14.00;99.90
46608;DHT22;32330;51.936;7.184;2023-05-07T03:47:15;13.90;99.90
46608;DHT22;32330;51.936;7.184;2023-05-07T03:49:43;13.90;99.90
46608;DHT22;32330;51.936;7.184;2023-05-07T03:52:10;13.90;99.90
46608;DHT22;32330;51.936;7.184;2023-05-07T03:54:37;13.90;99.90
46608;DHT22;32330;51.936;7.184;2023-05-07T03:57:04;13.90;99.90
46608;DHT22;32330;51.936;7.184;2023-05-07T03:59:32;13.80;99.90
46608;DHT22;32330;51.936;7.184;2023-05-07T04:01:59;13.90;99.90
46608;DHT22;32330;51.936;7.184;2023-05-07T04:04:28;13.80;99.90
46608;DHT22;32330;51.936;7.184;2023-05-07T04:06:59;13.80;99.90
46608;DHT22;32330;51.936;7.184;2023-05-07T04:09:27;13.80;99.90
46608;DHT22;32330;51.936;7.184;2023-05-07T04:11:55;13.80;99.90
46608;DHT22;32330;51.936;7.184;2023-05-07T04:14:22;13.80;99.90
46608;DHT22;32330;51.936;7.184;2023-05-07T04:16:51;13.70;99.90
46608;DHT22;32330;51.936;7.184;2023-05-07T04:19:18;13.80;99.90
46608;DHT22;32330;51.936;7.184;2023-05-07T04:21:50;13.70;99.90
46608;DHT22;32330;51.936;7.184;2023-05-07T04:24:17;13.70;99.90
46608;DHT22;32330;51.936;7.184;2023-05-07T04:26:44;13.70;99.90
46608;DHT22;32330;51.936;7.184;2023-05-07T04:29:11;13.70;99.90
46608;DHT22;32330;51.936;7.184;2023-05-07T04:31:38;13.60;99.90
46608;DHT22;32330;51.936;7.184;2023-05-07T04:34:06;13.60;99.90
46608;DHT22;32330;51.936;7.184;2023-05-07T04:36:34;13.60;99.90
46608;DHT22;32330;51.936;7.184;2023-05-07T04:39:06;13.60;99.90
46608;DHT22;32330;51.936;7.184;2023-05-07T04:41:33;13.60;99.90
46608;DHT22;32330;51.936;7.184;2023-05-07T04:44:01;13.60;99.90
46608;DHT22;32330;51.936;7.184;2023-05-07T04:46:31;13.60;99.90
46608;DHT22;32330;51.936;7.184;2023-05-07T04:48:58;13.60;99.90
46608;DHT22;32330;51.936;7.184;2023-05-07T04:51:26;13.70;99.90
46608;DHT22;32330;51.936;7.184;2023-05-07T04:53:53;13.60;99.90
46608;DHT22;32330;51.936;7.184;2023-05-07T04:56:20;13.70;99.90
46608;DHT22;32330;51.936;7.184;2023-05-07T04:58:47;13.70;99.90
46608;DHT22;32330;51.936;7.184;2023-05-07T05:01:17;13.70;99.90
46608;DHT22;32330;51.936;7.184;2023-05-07T05:03:44;13.70;99.90
46608;DHT22;32330;51.936;7.184;2023-05-07T05:06:11;13.80;99.90
46608;DHT22;32330;51.936;7.184;2023-05-07T05:08:39;13.80;99.90
46608;DHT22;32330;51.936;7.184;2023-05-07T05:11:06;13.80;99.90
46608;DHT22;32330;51.936;7.184;2023-05-07T05:13:35;13.80;99.90
46608;DHT22;32330;51.936;7.184;2023-05-07T05:16:08;13.80;99.90
46608;DHT22;32330;51.936;7.184;2023-05-07T05:18:36;13.80;99.90
46608;DHT22;32330;51.936;7.184;2023-05-07T05:21:03;13.90;99.90
46608;DHT22;32330;51.936;7.184;2023-05-07T05:23:31;13.90;99.90
46608;DHT22;32330;51.936;7.184;2023-05-07T05:26:00;13.90;99.90
46608;DHT22;32330;51.936;7.184;2023-05-07T05:28:30;13.90;99.90
46608;DHT22;32330;51.936;7.184;2023-05-07T05:30:57;13.90;99.90
46608;DHT22;32330;51.936;7.184;2023-05-07T05:33:26;14.00;99.90
46608;DHT22;32330;51.936;7.184;2023-05-07T05:35:58;14.00;99.90
46608;DHT22;32330;51.936;7.184;2023-05-07T05:38:25;14.00;99.90
46608;DHT22;32330;51.936;7.184;2023-05-07T05:40:52;14.10;99.90
46608;DHT22;32330;51.936;7.184;2023-05-07T05:43:20;14.10;99.90
46608;DHT22;32330;51.936;7.184;2023-05-07T05:45:47;14.20;99.90
46608;DHT22;32330;51.936;7.184;2023-05-07T05:48:14;14.20;99.90
46608;DHT22;32330;51.936;7.184;2023-05-07T05:50:41;14.30;99.90
46608;DHT22;32330;51.936;7.184;2023-05-07T05:53:09;14.40;99.90
46608;DHT22;32330;51.936;7.184;2023-05-07T05:55:36;14.40;99.90
46608;DHT22;32330;51.936;7.184;2023-05-07T05:58:04;14.50;99.90
46608;DHT22;32330;51.936;7.184;2023-05-07T06:00:36;14.40;99.90
46608;DHT22;32330;51.936;7.184;2023-05-07T06:03:05;14.50;99.90
46608;DHT22;32330;51.936;7.184;2023-05-07T06:05:32;14.60;99.90
46608;DHT22;32330;51.936;7.184;2023-05-07T06:07:58;14.70;99.90
46608;DHT22;32330;51.936;7.184;2023-05-07T06:10:29;14.70;99.90
46608;DHT22;32330;51.936;7.184;2023-05-07T06:12:57;14.70;99.90
46608;DHT22;32330;51.936;7.184;2023-05-07T06:15:24;14.70;99.90
46608;DHT22;32330;51.936;7.184;2023-05-07T06:17:52;14.70;99.90
46608;DHT22;32330;51.936;7.184;2023-05-07T06:20:21;14.80;99.90
46608;DHT22;32330;51.936;7.184;2023-05-07T06:22:49;14.90;99.90
46608;DHT22;32330;51.936;7.184;2023-05-07T06:25:16;15.00;99.90
46608;DHT22;32330;51.936;7.184;2023-05-07T06:27:43;15.00;99.90
46608;DHT22;32330;51.936;7.184;2023-05-07T06:30:11;15.10;99.90
46608;DHT22;32330;51.936;7.184;2023-05-07T06:32:40;15.20;99.90
46608;DHT22;32330;51.936;7.184;2023-05-07T06:35:09;15.30;99.90
46608;DHT22;32330;51.936;7.184;2023-05-07T06:37:37;15.20;99.90
46608;DHT22;32330;51.936;7.184;2023-05-07T06:40:07;15.30;99.90
46608;DHT22;32330;51.936;7.184;2023-05-07T06:42:36;15.30;99.90
46608;DHT22;32330;51.936;7.184;2023-05-07T06:45:21;15.40;99.90
46608;DHT22;32330;51.936;7.184;2023-05-07T06:47:48;15.40;99.90
46608;DHT22;32330;51.936;7.184;2023-05-07T06:50:19;15.40;99.90
46608;DHT22;32330;51.936;7.184;2023-05-07T06:52:47;15.40;99.90
46608;DHT22;32330;51.936;7.184;2023-05-07T06:55:14;15.50;99.90
46608;DHT22;32330;51.936;7.184;2023-05-07T06:57:41;15.60;99.90
46608;DHT22;32330;51.936;7.184;2023-05-07T07:00:08;15.80;99.90
46608;DHT22;32330;51.936;7.184;2023-05-07T07:02:43;15.90;99.90
46608;DHT22;32330;51.936;7.184;2023-05-07T07:05:11;15.90;99.90
46608;DHT22;32330;51.936;7.184;2023-05-07T07:07:39;16.00;99.90
46608;DHT22;32330;51.936;7.184;2023-05-07T07:10:07;16.20;99.90
46608;DHT22;32330;51.936;7.184;2023-05-07T07:12:49;16.30;99.90
46608;DHT22;32330;51.936;7.184;2023-05-07T07:15:30;16.60;99.90
46608;DHT22;32330;51.936;7.184;2023-05-07T07:17:57;16.70;95.90
46608;DHT22;32330;51.936;7.184;2023-05-07T07:20:25;16.80;96.20
46608;DHT22;32330;51.936;7.184;2023-05-07T07:22:56;16.90;96.40
46608;DHT22;32330;51.936;7.184;2023-05-07T07:25:23;17.00;96.80
46608;DHT22;32330;51.936;7.184;2023-05-07T08:00:49;17.50;84.50
46608;DHT22;32330;51.936;7.184;2023-05-07T08:03:17;17.80;81.80
46608;DHT22;32330;51.936;7.184;2023-05-07T08:05:49;17.90;71.60
46608;DHT22;32330;51.936;7.184;2023-05-07T08:08:17;18.00;73.70
46608;DHT22;32330;51.936;7.184;2023-05-07T08:10:43;18.10;72.10
46608;DHT22;32330;51.936;7.184;2023-05-07T08:13:18;18.30;71.50
46608;DHT22;32330;51.936;7.184;2023-05-07T08:15:46;18.20;70.20
46608;DHT22;32330;51.936;7.184;2023-05-07T08:18:15;18.20;62.00
46608;DHT22;32330;51.936;7.184;2023-05-07T08:20:43;18.30;70.20
46608;DHT22;32330;51.936;7.184;2023-05-07T08:23:14;18.30;63.10
46608;DHT22;32330;51.936;7.184;2023-05-07T08:25:43;18.50;62.50
46608;DHT22;32330;51.936;7.184;2023-05-07T08:28:10;18.70;65.50
46608;DHT22;32330;51.936;7.184;2023-05-07T08:30:38;18.70;63.20
46608;DHT22;32330;51.936;7.184;2023-05-07T08:33:05;18.80;64.30
46608;DHT22;32330;51.936;7.184;2023-05-07T08:35:34;18.90;61.00
46608;DHT22;32330;51.936;7.184;2023-05-07T08:38:01;18.80;61.20
46608;DHT22;32330;51.936;7.184;2023-05-07T08:40:28;19.00;61.30
46608;DHT22;32330;51.936;7.184;2023-05-07T08:42:57;19.10;54.30
46608;DHT22;32330;51.936;7.184;2023-05-07T08:45:24;19.00;55.80
46608;DHT22;32330;51.936;7.184;2023-05-07T08:47:55;19.20;53.30
46608;DHT22;32330;51.936;7.184;2023-05-07T08:50:28;19.10;46.80
46608;DHT22;32330;51.936;7.184;2023-05-07T08:52:57;19.10;44.60
46608;DHT22;32330;51.936;7.184;2023-05-07T08:55:24;19.20;42.30
46608;DHT22;32330;51.936;7.184;2023-05-07T08:57:50;19.30;47.90
46608;DHT22;32330;51.936;7.184;2023-05-07T09:00:19;19.50;39.90
46608;DHT22;32330;51.936;7.184;2023-05-07T09:02:49;19.60;41.70
46608;DHT22;32330;51.936;7.184;2023-05-07T09:05:16;19.60;42.10
46608;DHT22;32330;51.936;7.184;2023-05-07T09:07:43;19.70;42.90
46608;DHT22;32330;51.936;7.184;2023-05-07T09:10:13;19.80;42.50
46608;DHT22;32330;51.936;7.184;2023-05-07T09:12:41;19.80;40.90
46608;DHT22;32330;51.936;7.184;2023-05-07T09:15:10;20.00;42.70
46608;DHT22;32330;51.936;7.184;2023-05-07T09:17:38;20.10;37.30
46608;DHT22;32330;51.936;7.184;2023-05-07T09:20:07;20.30;39.00
46608;DHT22;32330;51.936;7.184;2023-05-07T09:22:34;20.30;35.50
46608;DHT22;32330;51.936;7.184;2023-05-07T09:35:52;20.50;36.20
46608;DHT22;32330;51.936;7.184;2023-05-07T09:38:20;20.70;33.70
46608;DHT22;32330;51.936;7.184;2023-05-07T09:40:57;20.70;39.70
46608;DHT22;32330;51.936;7.184;2023-05-07T09:43:31;21.00;38.00
46608;DHT22;32330;51.936;7.184;2023-05-07T09:45:58;21.00;41.00
46608;DHT22;32330;51.936;7.184;2023-05-07T09:48:26;21.10;42.00
46608;DHT22;32330;51.936;7.184;2023-05-07T09:50:56;21.30;42.40
46608;DHT22;32330;51.936;7.184;2023-05-07T09:53:29;21.20;43.90
46608;DHT22;32330;51.936;7.184;2023-05-07T09:55:56;21.40;41.00
46608;DHT22;32330;51.936;7.184;2023-05-07T09:58:24;21.40;39.40
46608;DHT22;32330;51.936;7.184;2023-05-07T10:00:53;21.50;41.30
46608;DHT22;32330;51.936;7.184;2023-05-07T10:03:20;21.70;40.90
46608;DHT22;32330;51.936;7.184;2023-05-07T10:05:57;21.90;47.00
46608;DHT22;32330;51.936;7.184;2023-05-07T10:08:25;21.70;42.40
46608;DHT22;32330;51.936;7.184;2023-05-07T10:10:56;21.80;39.70
46608;DHT22;32330;51.936;7.184;2023-05-07T10:13:25;22.20;41.30
46608;DHT22;32330;51.936;7.184;2023-05-07T10:15:55;22.40;35.90
46608;DHT22;32330;51.936;7.184;2023-05-07T10:18:25;22.50;43.10
46608;DHT22;32330;51.936;7.184;2023-05-07T10:21:02;22.50;45.70
46608;DHT22;32330;51.936;7.184;2023-05-07T10:23:31;22.50;44.40
46608;DHT22;32330;51.936;7.184;2023-05-07T10:25:59;22.50;42.90
46608;DHT22;32330;51.936;7.184;2023-05-07T10:28:30;22.50;47.60
46608;DHT22;32330;51.936;7.184;2023-05-07T10:31:05;22.70;38.00
46608;DHT22;32330;51.936;7.184;2023-05-07T10:33:40;23.00;44.60
46608;DHT22;32330;51.936;7.184;2023-05-07T10:36:10;23.00;41.70
46608;DHT22;32330;51.936;7.184;2023-05-07T10:38:37;23.00;40.80
46608;DHT22;32330;51.936;7.184;2023-05-07T10:41:06;23.00;38.10
46608;DHT22;32330;51.936;7.184;2023-05-07T10:43:40;23.10;39.90
46608;DHT22;32330;51.936;7.184;2023-05-07T10:46:09;23.10;36.30
46608;DHT22;32330;51.936;7.184;2023-05-07T10:51:21;23.40;41.80
46608;DHT22;32330;51.936;7.184;2023-05-07T10:59:49;23.70;45.80
46608;DHT22;32330;51.936;7.184;2023-05-07T11:02:23;23.90;47.00
46608;DHT22;32330;51.936;7.184;2023-05-07T11:05:20;24.10;48.80
46608;DHT22;32330;51.936;7.184;2023-05-07T11:07:56;24.10;47.60
46608;DHT22;32330;51.936;7.184;2023-05-07T11:13:40;24.30;34.70
46608;DHT22;32330;51.936;7.184;2023-05-07T11:16:15;24.70;35.30
46608;DHT22;32330;51.936;7.184;2023-05-07T11:18:47;24.50;30.10
46608;DHT22;32330;51.936;7.184;2023-05-07T11:21:21;24.60;33.40
46608;DHT22;32330;51.936;7.184;2023-05-07T11:24:05;24.70;30.40
46608;DHT22;32330;51.936;7.184;2023-05-07T11:26:45;24.90;28.40
46608;DHT22;32330;51.936;7.184;2023-05-07T11:29:13;25.20;30.00
46608;DHT22;32330;51.936;7.184;2023-05-07T11:31:42;24.80;29.90
46608;DHT22;32330;51.936;7.184;2023-05-07T11:34:09;25.10;31.80
46608;DHT22;32330;51.936;7.184;2023-05-07T11:36:42;25.10;29.70
46608;DHT22;32330;51.936;7.184;2023-05-07T11:39:28;25.30;29.00
46608;DHT22;32330;51.936;7.184;2023-05-07T11:41:55;24.90;27.80
46608;DHT22;32330;51.936;7.184;2023-05-07T11:44:22;25.00;33.30
46608;DHT22;32330;51.936;7.184;2023-05-07T11:46:49;25.30;32.80
46608;DHT22;32330;51.936;7.184;2023-05-07T11:49:16;25.50;30.20
46608;DHT22;32330;51.936;7.184;2023-05-07T11:51:44;25.80;30.60
46608;DHT22;32330;51.936;7.184;2023-05-07T11:54:14;25.90;35.70
46608;DHT22;32330;51.936;7.184;2023-05-07T11:56:42;25.30;31.40
46608;DHT22;32330;51.936;7.184;2023-05-07T11:59:08;24.90;29.30
46608;DHT22;32330;51.936;7.184;2023-05-07T12:01:35;25.10;30.40
46608;DHT22;32330;51.936;7.184;2023-05-07T12:04:03;25.10;28.50
46608;DHT22;32330;51.936;7.184;2023-05-07T12:06:30;25.30;28.80
46608;DHT22;32330;51.936;7.184;2023-05-07T12:08:58;25.50;29.20
46608;DHT22;32330;51.936;7.184;2023-05-07T12:11:25;25.50;32.70
46608;DHT22;32330;51.936;7.184;2023-05-07T12:13:53;25.60;28.70
46608;DHT22;32330;51.936;7.184;2023-05-07T12:16:20;25.50;29.70
46608;DHT22;32330;51.936;7.184;2023-05-07T12:18:47;25.30;32.40
46608;DHT22;32330;51.936;7.184;2023-05-07T12:21:14;25.30;33.80
46608;DHT22;32330;51.936;7.184;2023-05-07T12:23:42;25.50;28.70
46608;DHT22;32330;51.936;7.184;2023-05-07T12:26:11;25.70;28.30
46608;DHT22;32330;51.936;7.184;2023-05-07T12:28:38;25.70;26.70
46608;DHT22;32330;51.936;7.184;2023-05-07T12:31:05;25.70;29.80
46608;DHT22;32330;51.936;7.184;2023-05-07T12:33:32;25.50;27.40
46608;DHT22;32330;51.936;7.184;2023-05-07T12:36:02;25.40;29.30
46608;DHT22;32330;51.936;7.184;2023-05-07T12:38:33;25.20;28.50
46608;DHT22;32330;51.936;7.184;2023-05-07T12:41:01;25.50;26.30
46608;DHT22;32330;51.936;7.184;2023-05-07T12:43:29;25.90;21.40
46608;DHT22;32330;51.936;7.184;2023-05-07T12:45:56;25.40;19.00
46608;DHT22;32330;51.936;7.184;2023-05-07T12:48:23;25.60;22.10
46608;DHT22;32330;51.936;7.184;2023-05-07T12:50:53;25.70;19.20
46608;DHT22;32330;51.936;7.184;2023-05-07T12:53:20;25.80;20.10
46608;DHT22;32330;51.936;7.184;2023-05-07T12:55:48;26.10;23.10
46608;DHT22;32330;51.936;7.184;2023-05-07T12:58:15;26.20;21.00
46608;DHT22;32330;51.936;7.184;2023-05-07T13:00:44;26.00;18.60
46608;DHT22;32330;51.936;7.184;2023-05-07T13:03:11;26.10;17.90
46608;DHT22;32330;51.936;7.184;2023-05-07T13:05:38;26.40;19.40
46608;DHT22;32330;51.936;7.184;2023-05-07T13:08:05;26.40;23.30
46608;DHT22;32330;51.936;7.184;2023-05-07T13:10:35;26.30;23.00
46608;DHT22;32330;51.936;7.184;2023-05-07T13:13:02;25.90;22.40
46608;DHT22;32330;51.936;7.184;2023-05-07T13:15:30;26.30;23.70
46608;DHT22;32330;51.936;7.184;2023-05-07T13:17:58;26.30;22.80
46608;DHT22;32330;51.936;7.184;2023-05-07T13:20:25;26.30;20.30
46608;DHT22;32330;51.936;7.184;2023-05-07T13:22:52;26.10;19.90
46608;DHT22;32330;51.936;7.184;2023-05-07T13:25:18;25.90;18.00
46608;DHT22;32330;51.936;7.184;2023-05-07T13:27:45;25.60;19.60
46608;DHT22;32330;51.936;7.184;2023-05-07T13:30:12;25.30;21.30
46608;DHT22;32330;51.936;7.184;2023-05-07T13:32:39;25.60;21.90
46608;DHT22;32330;51.936;7.184;2023-05-07T13:35:08;25.90;18.90
46608;DHT22;32330;51.936;7.184;2023-05-07T13:37:35;25.90;18.00
46608;DHT22;32330;51.936;7.184;2023-05-07T13:40:02;25.80;18.20
46608;DHT22;32330;51.936;7.184;2023-05-07T13:42:29;25.70;20.90
46608;DHT22;32330;51.936;7.184;2023-05-07T13:44:56;25.60;21.20
46608;DHT22;32330;51.936;7.184;2023-05-07T13:47:23;25.40;19.50
46608;DHT22;32330;51.936;7.184;2023-05-07T13:49:51;25.50;19.30
46608;DHT22;32330;51.936;7.184;2023-05-07T13:52:19;25.50;27.90
46608;DHT22;32330;51.936;7.184;2023-05-07T13:54:46;25.30;24.20
46608;DHT22;32330;51.936;7.184;2023-05-07T13:57:13;25.00;20.20
46608;DHT22;32330;51.936;7.184;2023-05-07T13:59:40;24.30;22.30
46608;DHT22;32330;51.936;7.184;2023-05-07T14:02:07;24.20;20.20
46608;DHT22;32330;51.936;7.184;2023-05-07T14:04:34;24.40;19.30
46608;DHT22;32330;51.936;7.184;2023-05-07T14:07:01;24.50;21.00
46608;DHT22;32330;51.936;7.184;2023-05-07T14:09:30;24.60;20.90
46608;DHT22;32330;51.936;7.184;2023-05-07T14:11:58;24.40;20.80
46608;DHT22;32330;51.936;7.184;2023-05-07T14:14:25;24.40;20.40
46608;DHT22;32330;51.936;7.184;2023-05-07T14:16:52;24.30;20.80
46608;DHT22;32330;51.936;7.184;2023-05-07T14:19:19;24.40;21.60
46608;DHT22;32330;51.936;7.184;2023-05-07T14:21:48;24.40;20.90
46608;DHT22;32330;51.936;7.184;2023-05-07T14:24:15;24.10;21.00
46608;DHT22;32330;51.936;7.184;2023-05-07T14:26:43;24.10;21.90
46608;DHT22;32330;51.936;7.184;2023-05-07T14:29:10;24.10;22.40
46608;DHT22;32330;51.936;7.184;2023-05-07T14:31:37;23.90;23.00
46608;DHT22;32330;51.936;7.184;2023-05-07T14:34:04;23.90;20.30
46608;DHT22;32330;51.936;7.184;2023-05-07T14:36:31;23.90;22.50
46608;DHT22;32330;51.936;7.184;2023-05-07T14:38:57;23.90;22.90
46608;DHT22;32330;51.936;7.184;2023-05-07T14:41:25;23.90;23.10
46608;DHT22;32330;51.936;7.184;2023-05-07T14:43:53;23.70;22.20
46608;DHT22;32330;51.936;7.184;2023-05-07T14:46:21;23.70;24.00
46608;DHT22;32330;51.936;7.184;2023-05-07T14:48:49;23.70;23.20
46608;DHT22;32330;51.936;7.184;2023-05-07T14:51:16;23.70;24.50
46608;DHT22;32330;51.936;7.184;2023-05-07T14:53:43;23.40;24.70
46608;DHT22;32330;51.936;7.184;2023-05-07T14:56:09;23.20;23.30
46608;DHT22;32330;51.936;7.184;2023-05-07T14:58:36;23.10;22.00
46608;DHT22;32330;51.936;7.184;2023-05-07T15:01:04;23.00;22.20
46608;DHT22;32330;51.936;7.184;2023-05-07T15:03:31;23.00;21.50
46608;DHT22;32330;51.936;7.184;2023-05-07T15:05:58;22.80;20.40
46608;DHT22;32330;51.936;7.184;2023-05-07T15:08:26;22.90;17.90
46608;DHT22;32330;51.936;7.184;2023-05-07T15:10:53;22.90;15.90
46608;DHT22;32330;51.936;7.184;2023-05-07T15:13:46;22.90;18.40
46608;DHT22;32330;51.936;7.184;2023-05-07T15:16:14;22.70;13.80
46608;DHT22;32330;51.936;7.184;2023-05-07T15:18:42;22.70;12.80
46608;DHT22;32330;51.936;7.184;2023-05-07T15:21:09;22.60;6.30
46608;DHT22;32330;51.936;7.184;2023-05-07T15:23:38;22.40;6.40
46608;DHT22;32330;51.936;7.184;2023-05-07T15:26:06;22.40;11.10
46608;DHT22;32330;51.936;7.184;2023-05-07T15:28:34;22.60;10.60
46608;DHT22;32330;51.936;7.184;2023-05-07T15:31:01;22.50;8.70
46608;DHT22;32330;51.936;7.184;2023-05-07T15:33:29;22.50;1.40
46608;DHT22;32330;51.936;7.184;2023-05-07T15:35:56;22.30;3.10
46608;DHT22;32330;51.936;7.184;2023-05-07T15:38:49;22.10;2.60
46608;DHT22;32330;51.936;7.184;2023-05-07T15:41:17;22.00;4.40
46608;DHT22;32330;51.936;7.184;2023-05-07T15:43:44;22.00;1.00
46608;DHT22;32330;51.936;7.184;2023-05-07T15:46:12;22.10;1.00
46608;DHT22;32330;51.936;7.184;2023-05-07T15:48:41;22.10;1.00
46608;DHT22;32330;51.936;7.184;2023-05-07T15:51:08;22.00;1.00
46608;DHT22;32330;51.936;7.184;2023-05-07T15:53:35;22.00;1.00
46608;DHT22;32330;51.936;7.184;2023-05-07T15:56:03;22.00;1.00
46608;DHT22;32330;51.936;7.184;2023-05-07T15:58:29;21.90;1.00
46608;DHT22;32330;51.936;7.184;2023-05-07T16:00:57;21.90;1.00
46608;DHT22;32330;51.936;7.184;2023-05-07T16:03:24;21.90;1.00
46608;DHT22;32330;51.936;7.184;2023-05-07T16:05:53;21.90;1.40
46608;DHT22;32330;51.936;7.184;2023-05-07T16:08:24;21.90;1.00
46608;DHT22;32330;51.936;7.184;2023-05-07T16:10:51;21.90;1.00
46608;DHT22;32330;51.936;7.184;2023-05-07T16:13:18;21.80;1.00
46608;DHT22;32330;51.936;7.184;2023-05-07T16:15:45;21.70;1.00
46608;DHT22;32330;51.936;7.184;2023-05-07T16:18:12;21.70;1.00
46608;DHT22;32330;51.936;7.184;2023-05-07T16:20:40;21.80;1.00
46608;DHT22;32330;51.936;7.184;2023-05-07T16:23:09;21.70;1.00
46608;DHT22;32330;51.936;7.184;2023-05-07T16:25:37;21.70;1.00
46608;DHT22;32330;51.936;7.184;2023-05-07T16:28:04;21.40;1.00
46608;DHT22;32330;51.936;7.184;2023-05-07T16:30:32;21.40;1.00
46608;DHT22;32330;51.936;7.184;2023-05-07T16:32:59;21.40;1.00
46608;DHT22;32330;51.936;7.184;2023-05-07T16:35:26;21.30;1.00